Time;durP1;ratioP1;P1;durP2;ratioP2;P2;SDS_P1;SDS_P2;PMS_P1;PMS_P2;Temp;Humidity;BMP_temperature;BMP_pressure;BME280_temperature;BME280_humidity;BME280_pressure;Samples;Min_cycle;Max_cycle;Signal;HPM_P1;HPM_P2
2021/10/07 00:02:09;;;;;;;56.57;33.67;;;13.10;97.20;;;;;;5071193;28;20391;-75
2021/10/07 00:04:34;;;;;;;59.63;33.67;;;13.20;96.40;;;;;;5070625;28;20376;-75
2021/10/07 00:07:00;;;;;;;54.57;33.20;;;13.20;95.80;;;;;;5062168;28;20739;-76
2021/10/07 00:09:26;;;;;;;59.33;33.67;;;13.20;95.40;;;;;;5070452;28;20445;-76
2021/10/07 00:11:51;;;;;;;54.03;32.57;;;13.30;93.80;;;;;;5070811;28;20423;-76
2021/10/07 00:14:17;;;;;;;56.80;32.90;;;13.20;94.10;;;;;;5070630;28;20403;-75
2021/10/07 00:16:43;;;;;;;55.10;33.30;;;13.20;95.30;;;;;;5070908;28;20754;-75
2021/10/07 00:19:08;;;;;;;69.70;35.97;;;13.20;96.10;;;;;;5070311;28;20384;-76
2021/10/07 00:21:34;;;;;;;62.40;35.90;;;13.30;97.70;;;;;;5070066;28;20380;-76
2021/10/07 00:24:09;;;;;;;56.53;34.20;;;13.30;95.10;;;;;;5070000;28;20392;-76
2021/10/07 00:26:36;;;;;;;61.00;34.75;;;13.50;93.90;;;;;;5070608;28;20398;-75
2021/10/07 00:29:20;;;;;;;66.15;33.53;;;13.60;90.80;;;;;;5070005;28;20387;-76
2021/10/07 00:31:49;;;;;;;72.25;36.33;;;13.70;88.30;;;;;;5049014;28;20390;-76
2021/10/07 00:34:31;;;;;;;59.17;36.10;;;13.60;89.00;;;;;;5059144;28;20434;-76
2021/10/07 00:37:02;;;;;;;69.72;36.08;;;13.60;90.00;;;;;;5069324;28;20740;-76
2021/10/07 00:39:28;;;;;;;59.17;33.88;;;13.50;89.80;;;;;;5069997;28;20787;-76
2021/10/07 00:41:54;;;;;;;66.72;37.03;;;13.50;90.40;;;;;;5070562;28;20896;-76
2021/10/07 00:44:21;;;;;;;71.80;35.83;;;13.50;92.10;;;;;;5070783;28;20836;-76
2021/10/07 00:47:00;;;;;;;76.82;36.42;;;13.50;90.50;;;;;;5070428;28;20379;-76
2021/10/07 00:49:32;;;;;;;73.20;38.28;;;13.50;91.10;;;;;;5069534;28;20395;-76
2021/10/07 00:51:58;;;;;;;67.30;38.40;;;13.50;93.20;;;;;;5070169;28;20481;-76
2021/10/07 00:54:26;;;;;;;77.38;39.47;;;13.40;92.40;;;;;;5070125;28;20422;-76
2021/10/07 00:56:52;;;;;;;72.07;37.95;;;13.30;96.10;;;;;;5070382;28;20929;-75
2021/10/07 00:59:18;;;;;;;74.75;39.75;;;13.20;97.60;;;;;;5070291;28;20437;-75
2021/10/07 01:01:44;;;;;;;76.43;38.90;;;13.30;99.90;;;;;;5065628;28;20388;-75
2021/10/07 01:04:10;;;;;;;68.63;36.83;;;13.50;94.50;;;;;;5070270;28;20394;-75
2021/10/07 01:06:37;;;;;;;66.78;36.83;;;13.60;92.20;;;;;;5069815;28;20741;-76
2021/10/07 01:09:04;;;;;;;65.05;37.03;;;13.60;90.00;;;;;;5070107;28;20383;-76
2021/10/07 01:11:29;;;;;;;72.95;37.88;;;13.60;87.10;;;;;;5070295;28;20387;-76
2021/10/07 01:13:55;;;;;;;68.10;36.70;;;13.60;90.20;;;;;;5068172;28;20403;-76
2021/10/07 01:16:21;;;;;;;64.78;36.83;;;13.50;89.10;;;;;;5067034;28;20787;-76
2021/10/07 01:18:48;;;;;;;67.37;36.73;;;13.50;90.00;;;;;;5073873;28;20395;-76
2021/10/07 01:21:15;;;;;;;67.75;36.15;;;13.50;89.90;;;;;;5073638;28;20440;-76
2021/10/07 01:23:44;;;;;;;73.60;37.35;;;13.50;90.80;;;;;;5073679;28;20384;-77
2021/10/07 01:26:12;;;;;;;70.30;37.13;;;13.50;90.40;;;;;;5074899;28;20390;-75
2021/10/07 01:28:42;;;;;;;74.90;39.10;;;13.50;90.70;;;;;;5078751;28;20403;-75
2021/10/07 01:31:08;;;;;;;77.70;39.28;;;13.40;92.40;;;;;;5078746;28;20948;-76
2021/10/07 01:33:34;;;;;;;69.40;37.53;;;13.40;93.40;;;;;;5059806;28;20398;-75
2021/10/07 01:36:00;;;;;;;73.15;37.72;;;13.50;91.00;;;;;;5055204;28;20890;-76
2021/10/07 01:38:26;;;;;;;75.38;37.92;;;13.50;90.10;;;;;;5053871;28;20385;-76
2021/10/07 01:40:52;;;;;;;76.28;40.67;;;13.50;90.70;;;;;;5053682;28;20405;-74
2021/10/07 01:43:18;;;;;;;80.45;37.45;;;13.40;92.30;;;;;;5068263;28;20876;-75
2021/10/07 01:45:48;;;;;;;79.65;37.83;;;13.50;91.80;;;;;;5075453;28;20734;-75
2021/10/07 01:48:14;;;;;;;66.93;36.65;;;13.50;89.40;;;;;;5075039;28;20392;-75
2021/10/07 01:50:39;;;;;;;75.20;38.50;;;13.50;90.30;;;;;;5071893;28;20461;-73
2021/10/07 01:53:05;;;;;;;76.70;38.73;;;13.40;91.40;;;;;;5064132;28;20893;-74
2021/10/07 01:55:30;;;;;;;74.87;39.43;;;13.40;91.60;;;;;;5053141;28;21011;-74
2021/10/07 01:57:56;;;;;;;77.30;38.80;;;13.30;94.20;;;;;;5053277;28;20808;-74
2021/10/07 02:00:22;;;;;;;69.50;36.43;;;13.40;94.00;;;;;;5070677;28;20398;-74
2021/10/07 02:02:47;;;;;;;75.13;38.33;;;13.40;91.50;;;;;;5072325;28;20489;-74
2021/10/07 02:05:14;;;;;;;62.97;34.45;;;13.40;91.20;;;;;;5073053;28;20452;-74
2021/10/07 02:07:40;;;;;;;63.90;33.15;;;13.40;88.30;;;;;;5073085;28;20384;-73
2021/10/07 02:10:12;;;;;;;65.60;35.00;;;13.40;87.90;;;;;;5072979;28;20391;-73
2021/10/07 02:12:38;;;;;;;63.88;34.45;;;13.40;88.60;;;;;;5072203;28;20383;-73
2021/10/07 02:15:05;;;;;;;76.18;36.72;;;13.40;88.60;;;;;;5093181;28;20426;-74
2021/10/07 02:17:30;;;;;;;72.35;35.40;;;13.40;91.80;;;;;;5075739;28;20477;-74
2021/10/07 02:19:56;;;;;;;73.18;35.80;;;13.40;92.00;;;;;;5062114;28;20389;-74
2021/10/07 02:22:21;;;;;;;74.07;36.33;;;13.40;90.80;;;;;;5061251;28;20379;-74
2021/10/07 02:24:47;;;;;;;82.38;36.30;;;13.40;91.10;;;;;;5073639;28;20384;-73
2021/10/07 02:27:12;;;;;;;71.80;37.17;;;13.30;91.70;;;;;;5073165;28;20391;-73
2021/10/07 02:29:38;;;;;;;71.67;37.40;;;13.30;93.50;;;;;;5072482;28;20403;-73
2021/10/07 02:32:04;;;;;;;80.73;39.23;;;13.20;96.10;;;;;;5070658;28;20756;-73
2021/10/07 02:34:29;;;;;;;79.43;38.30;;;13.10;99.90;;;;;;5072115;28;20903;-73
2021/10/07 02:36:55;;;;;;;80.23;40.10;;;13.30;96.40;;;;;;5072360;28;20388;-73
2021/10/07 02:39:20;;;;;;;78.63;37.37;;;13.30;95.10;;;;;;5071955;28;20395;-73
2021/10/07 02:41:46;;;;;;;75.40;37.97;;;13.30;93.80;;;;;;5071571;28;20473;-73
2021/10/07 02:44:12;;;;;;;75.22;37.83;;;13.30;93.40;;;;;;5070069;28;20406;-73
2021/10/07 02:46:37;;;;;;;76.97;40.00;;;13.30;94.90;;;;;;5052267;28;20393;-73
2021/10/07 02:49:04;;;;;;;78.20;38.50;;;13.20;94.10;;;;;;5053087;28;20412;-74
2021/10/07 02:51:29;;;;;;;82.22;39.05;;;13.10;96.50;;;;;;5052185;28;20882;-76
2021/10/07 02:53:55;;;;;;;85.07;41.67;;;13.00;98.20;;;;;;5052626;28;20388;-76
2021/10/07 02:56:20;;;;;;;80.27;38.90;;;13.00;97.60;;;;;;5054129;28;20412;-74
2021/10/07 02:58:46;;;;;;;83.37;38.57;;;13.00;97.50;;;;;;5056155;28;20389;-73
2021/10/07 03:01:12;;;;;;;67.68;35.75;;;13.00;97.90;;;;;;5054943;28;20385;-74
2021/10/07 03:03:37;;;;;;;73.90;37.03;;;13.00;96.80;;;;;;5054422;28;20380;-74
2021/10/07 03:06:03;;;;;;;75.60;35.63;;;12.90;97.50;;;;;;5054591;28;20827;-74
2021/10/07 03:08:28;;;;;;;78.43;36.50;;;13.00;97.60;;;;;;5063050;28;20882;-74
2021/10/07 03:10:57;;;;;;;75.85;36.78;;;12.90;98.90;;;;;;5064987;28;20407;-75
2021/10/07 03:13:23;;;;;;;67.05;34.30;;;13.00;98.50;;;;;;5059423;28;20397;-74
2021/10/07 03:15:49;;;;;;;70.85;35.95;;;13.10;97.90;;;;;;5064303;28;20406;-75
2021/10/07 03:18:15;;;;;;;71.23;34.30;;;13.10;97.20;;;;;;5059320;28;20381;-74
2021/10/07 03:20:41;;;;;;;72.18;34.38;;;13.10;97.20;;;;;;5066125;28;20753;-74
2021/10/07 03:23:06;;;;;;;65.40;32.58;;;13.10;95.70;;;;;;5073128;28;20380;-74
2021/10/07 03:25:32;;;;;;;68.00;33.97;;;13.10;94.60;;;;;;5073079;28;20395;-75
2021/10/07 03:27:57;;;;;;;68.93;31.75;;;13.10;95.10;;;;;;5072382;28;20453;-74
2021/10/07 03:30:23;;;;;;;69.63;32.17;;;13.20;94.00;;;;;;5072190;28;20853;-74
2021/10/07 03:32:48;;;;;;;66.50;33.50;;;13.20;94.00;;;;;;5071632;28;20383;-75
2021/10/07 03:35:14;;;;;;;73.23;33.00;;;13.10;93.90;;;;;;5070579;28;20416;-75
2021/10/07 03:37:40;;;;;;;60.33;32.43;;;13.10;94.90;;;;;;5071458;28;20740;-75
2021/10/07 03:40:07;;;;;;;65.70;33.67;;;13.00;94.80;;;;;;5070980;28;20366;-74
2021/10/07 03:42:33;;;;;;;80.15;34.60;;;12.90;97.20;;;;;;5072327;28;20948;-75
2021/10/07 03:45:02;;;;;;;64.37;33.73;;;12.90;98.00;;;;;;5071484;28;20440;-75
2021/10/07 03:47:28;;;;;;;74.10;35.53;;;12.60;99.90;;;;;;5070429;28;20395;-74
2021/10/07 03:49:53;;;;;;;66.65;34.22;;;12.70;99.90;;;;;;5071426;28;20384;-74
2021/10/07 03:52:19;;;;;;;64.70;34.37;;;12.80;99.60;;;;;;5071088;28;20469;-75
2021/10/07 03:54:44;;;;;;;77.80;35.00;;;12.60;99.90;;;;;;5069990;28;20548;-75
2021/10/07 03:57:10;;;;;;;71.95;34.22;;;12.40;99.90;;;;;;5071188;28;20493;-74
2021/10/07 03:59:35;;;;;;;70.15;34.63;;;12.30;99.90;;;;;;5070026;28;20380;-74
2021/10/07 04:02:01;;;;;;;71.60;34.83;;;12.50;99.90;;;;;;5066835;28;20393;-74
2021/10/07 04:04:26;;;;;;;62.20;33.83;;;12.60;99.90;;;;;;5052080;28;20731;-74
2021/10/07 04:06:52;;;;;;;74.40;35.97;;;12.50;99.90;;;;;;5051811;28;20758;-73
2021/10/07 04:09:17;;;;;;;75.17;37.70;;;12.20;99.90;;;;;;5051902;28;20385;-74
2021/10/07 04:11:43;;;;;;;80.00;35.73;;;12.00;99.90;;;;;;5055635;28;20410;-75
2021/10/07 04:14:09;;;;;;;83.68;37.53;;;11.90;99.90;;;;;;5071678;28;20781;-76
2021/10/07 04:16:34;;;;;;;77.38;35.25;;;11.80;99.90;;;;;;5071003;28;20449;-73
2021/10/07 04:19:00;;;;;;;79.43;34.47;;;11.70;99.90;;;;;;5072115;28;20737;-74
2021/10/07 04:21:25;;;;;;;78.22;36.35;;;11.80;99.90;;;;;;5055875;28;20394;-75
2021/10/07 04:23:51;;;;;;;71.40;35.83;;;12.00;99.90;;;;;;5069294;28;20380;-75
2021/10/07 04:26:17;;;;;;;71.75;33.45;;;12.00;99.90;;;;;;5068935;28;20434;-77
2021/10/07 04:28:42;;;;;;;84.33;35.63;;;11.80;99.90;;;;;;5070937;28;20385;-77
2021/10/07 04:31:08;;;;;;;75.13;34.63;;;11.60;99.90;;;;;;5070201;28;20396;-76
2021/10/07 04:33:33;;;;;;;80.47;35.30;;;11.50;99.90;;;;;;5070117;28;20388;-76
2021/10/07 04:35:59;;;;;;;83.63;37.03;;;11.60;99.90;;;;;;5069194;28;20400;-76
2021/10/07 04:38:24;;;;;;;75.38;33.20;;;11.50;99.90;;;;;;5070699;28;20388;-76
2021/10/07 04:40:50;;;;;;;78.80;35.90;;;11.50;99.90;;;;;;5070018;28;20390;-76
2021/10/07 04:43:15;;;;;;;90.35;37.85;;;11.50;99.90;;;;;;5071071;28;20384;-76
2021/10/07 04:45:41;;;;;;;81.70;36.30;;;11.50;99.90;;;;;;5053979;28;20424;-76
2021/10/07 04:48:06;;;;;;;71.50;34.97;;;11.60;99.90;;;;;;5058409;28;20403;-77
2021/10/07 04:50:32;;;;;;;79.03;34.90;;;11.70;99.90;;;;;;5071355;28;20383;-77
2021/10/07 04:52:58;;;;;;;78.60;35.67;;;11.70;99.90;;;;;;5074322;28;20422;-77
2021/10/07 04:55:24;;;;;;;78.72;34.97;;;11.80;99.90;;;;;;5071763;28;20852;-76
2021/10/07 04:57:49;;;;;;;75.82;34.92;;;12.00;99.90;;;;;;5074933;28;20419;-77
2021/10/07 05:00:15;;;;;;;80.88;36.40;;;12.00;99.90;;;;;;5074322;28;20787;-77
2021/10/07 05:02:41;;;;;;;74.88;35.13;;;12.00;99.90;;;;;;5073592;28;20391;-76
2021/10/07 05:05:09;;;;;;;73.68;34.70;;;12.00;99.90;;;;;;5074550;28;20452;-75
2021/10/07 05:07:34;;;;;;;73.28;34.88;;;12.00;99.90;;;;;;5074203;28;20390;-75
2021/10/07 05:10:00;;;;;;;73.30;32.40;;;12.10;99.90;;;;;;5062540;28;20965;-75
2021/10/07 05:12:25;;;;;;;69.33;33.27;;;12.10;99.90;;;;;;5063143;28;20481;-75
2021/10/07 05:14:51;;;;;;;70.63;34.27;;;12.20;99.90;;;;;;5075012;28;20403;-76
2021/10/07 05:17:16;;;;;;;65.30;32.97;;;12.10;99.90;;;;;;5074323;28;20387;-77
2021/10/07 05:19:42;;;;;;;66.57;32.70;;;12.10;99.90;;;;;;5077975;28;20379;-77
2021/10/07 05:22:08;;;;;;;66.03;33.22;;;12.10;99.90;;;;;;5073608;28;20411;-74
2021/10/07 05:24:33;;;;;;;70.00;33.75;;;12.10;99.90;;;;;;5074177;28;20880;-75
2021/10/07 05:26:59;;;;;;;60.95;31.15;;;12.20;99.90;;;;;;5065509;28;20403;-75
2021/10/07 05:29:24;;;;;;;74.07;33.90;;;12.20;99.90;;;;;;5075885;28;20388;-76
2021/10/07 05:31:50;;;;;;;66.73;33.20;;;12.20;99.90;;;;;;5074529;28;20391;-74
2021/10/07 05:34:16;;;;;;;65.30;32.87;;;12.30;99.90;;;;;;5071914;28;20406;-74
2021/10/07 05:36:43;;;;;;;62.00;33.40;;;12.50;99.90;;;;;;5062285;28;20396;-74
2021/10/07 05:39:09;;;;;;;69.95;33.97;;;12.60;99.90;;;;;;5073778;28;20391;-74
2021/10/07 05:41:34;;;;;;;68.70;33.55;;;12.60;99.90;;;;;;5073133;28;20853;-74
2021/10/07 05:44:00;;;;;;;66.10;33.30;;;12.60;99.90;;;;;;5076592;28;20391;-74
2021/10/07 05:46:25;;;;;;;64.65;32.58;;;12.70;99.90;;;;;;5062640;28;20392;-76
2021/10/07 05:48:51;;;;;;;69.20;33.35;;;12.60;99.90;;;;;;5071897;28;20391;-74
2021/10/07 05:51:18;;;;;;;72.93;35.50;;;12.70;99.90;;;;;;5060837;28;20401;-74
2021/10/07 05:53:44;;;;;;;139.13;77.45;;;12.60;99.90;;;;;;5072437;28;20757;-73
2021/10/07 05:56:09;;;;;;;183.60;102.75;;;12.80;99.90;;;;;;5073605;28;20403;-73
2021/10/07 05:58:35;;;;;;;116.63;64.60;;;12.80;99.90;;;;;;5073828;28;20403;-73
2021/10/07 06:01:00;;;;;;;221.97;123.83;;;12.90;99.90;;;;;;5073293;28;20689;-73
2021/10/07 06:03:26;;;;;;;122.30;60.83;;;12.80;99.90;;;;;;5074203;28;20414;-73
2021/10/07 06:05:51;;;;;;;87.90;44.70;;;12.90;99.90;;;;;;5075771;28;20768;-76
2021/10/07 06:08:17;;;;;;;107.38;50.35;;;12.80;99.90;;;;;;5057058;28;20393;-74
2021/10/07 06:10:42;;;;;;;126.95;63.40;;;12.60;99.90;;;;;;5052731;28;20398;-74
2021/10/07 06:13:08;;;;;;;86.80;43.00;;;12.60;99.90;;;;;;5072143;28;20404;-75
2021/10/07 06:15:34;;;;;;;73.63;35.28;;;12.60;99.90;;;;;;5072584;28;20407;-75
2021/10/07 06:18:00;;;;;;;104.10;52.10;;;12.60;99.90;;;;;;5073515;28;20384;-75
2021/10/07 06:20:32;;;;;;;72.03;35.03;;;12.60;99.90;;;;;;5072504;28;20399;-74
2021/10/07 06:23:01;;;;;;;68.10;34.22;;;12.80;99.90;;;;;;5073819;28;20392;-74
2021/10/07 06:25:27;;;;;;;80.28;39.00;;;13.00;99.90;;;;;;5072913;28;20380;-74
2021/10/07 06:27:52;;;;;;;66.05;33.97;;;12.90;99.90;;;;;;5071662;28;20399;-74
2021/10/07 06:30:19;;;;;;;82.28;42.42;;;12.90;99.30;;;;;;5067083;28;20445;-74
2021/10/07 06:32:45;;;;;;;76.95;35.63;;;12.90;99.90;;;;;;5070201;28;20406;-75
2021/10/07 06:35:11;;;;;;;94.03;48.42;;;12.90;95.60;;;;;;5064341;28;20403;-75
2021/10/07 06:37:37;;;;;;;66.70;33.53;;;12.90;97.50;;;;;;5080688;28;20461;-75
2021/10/07 06:40:04;;;;;;;70.20;38.20;;;13.00;94.50;;;;;;5092580;28;20455;-77
2021/10/07 06:42:30;;;;;;;57.53;32.60;;;13.00;91.40;;;;;;5080024;28;20432;-78
2021/10/07 06:44:55;;;;;;;62.97;32.63;;;13.10;91.50;;;;;;5073500;28;20392;-77
2021/10/07 06:47:21;;;;;;;66.50;32.08;;;13.20;90.30;;;;;;5075173;28;20402;-77
2021/10/07 06:49:46;;;;;;;65.07;31.67;;;13.30;88.30;;;;;;5073993;28;20390;-75
2021/10/07 06:52:12;;;;;;;62.70;32.60;;;13.30;87.60;;;;;;5071628;28;20427;-78
2021/10/07 06:54:37;;;;;;;65.20;33.57;;;13.40;85.00;;;;;;5065898;28;20850;-77
2021/10/07 06:57:03;;;;;;;65.82;32.47;;;13.50;81.80;;;;;;5072534;28;20392;-76
2021/10/07 06:59:28;;;;;;;68.65;32.67;;;13.50;79.60;;;;;;5070470;28;20398;-76
2021/10/07 07:01:54;;;;;;;59.17;32.30;;;13.60;78.70;;;;;;5070476;28;20402;-78
2021/10/07 07:04:20;;;;;;;76.70;33.43;;;13.60;77.60;;;;;;5070921;28;20501;-74
2021/10/07 07:06:45;;;;;;;78.97;35.90;;;13.50;79.00;;;;;;5072653;28;20396;-75
2021/10/07 07:09:12;;;;;;;67.63;33.70;;;13.60;75.70;;;;;;5083756;28;20434;-76
2021/10/07 07:11:38;;;;;;;68.00;30.20;;;13.50;78.00;;;;;;5072469;28;20403;-76
2021/10/07 07:14:05;;;;;;;63.42;33.03;;;13.50;76.50;;;;;;5066562;28;20405;-77
2021/10/07 07:16:34;;;;;;;68.05;33.13;;;13.70;75.90;;;;;;5060389;28;20391;-76
2021/10/07 07:19:00;;;;;;;67.78;33.83;;;13.90;67.90;;;;;;5071744;28;20840;-77
2021/10/07 07:21:30;;;;;;;77.75;38.55;;;14.20;68.30;;;;;;5070567;28;20807;-73
2021/10/07 07:23:57;;;;;;;76.30;37.00;;;14.30;69.60;;;;;;5062332;28;20399;-75
2021/10/07 07:26:23;;;;;;;79.60;37.10;;;14.50;66.90;;;;;;5061073;28;20456;-76
2021/10/07 07:28:48;;;;;;;79.75;38.97;;;14.70;65.30;;;;;;5076570;28;20392;-74
2021/10/07 07:31:14;;;;;;;71.88;35.55;;;14.90;61.10;;;;;;5072145;28;20395;-77
2021/10/07 07:33:39;;;;;;;71.57;35.03;;;15.10;56.50;;;;;;5080155;28;20400;-74
2021/10/07 07:36:05;;;;;;;72.20;34.10;;;15.10;56.00;;;;;;5075045;28;20411;-76
2021/10/07 07:38:31;;;;;;;77.50;36.70;;;15.10;52.90;;;;;;5071430;28;20893;-75
2021/10/07 07:40:57;;;;;;;68.10;35.10;;;15.20;52.40;;;;;;5070220;28;20387;-75
2021/10/07 07:43:23;;;;;;;73.37;35.60;;;15.50;50.10;;;;;;5081553;28;20428;-74
2021/10/07 07:45:50;;;;;;;68.17;34.13;;;15.60;48.70;;;;;;5069910;28;20427;-74
2021/10/07 07:48:16;;;;;;;61.40;32.47;;;15.60;49.40;;;;;;5066879;28;20456;-76
2021/10/07 07:50:42;;;;;;;56.07;30.77;;;15.80;47.90;;;;;;5066635;28;20764;-75
2021/10/07 07:53:10;;;;;;;70.40;33.97;;;15.90;45.60;;;;;;5063193;28;20405;-74
2021/10/07 07:55:36;;;;;;;74.55;36.55;;;16.10;45.40;;;;;;5064649;28;20407;-75
2021/10/07 07:58:01;;;;;;;69.87;37.37;;;16.30;44.20;;;;;;5070228;28;20892;-75
2021/10/07 08:00:27;;;;;;;72.00;37.93;;;16.50;42.70;;;;;;5068231;28;20396;-75
2021/10/07 08:02:52;;;;;;;66.43;35.67;;;16.70;41.60;;;;;;5069234;28;20483;-75
2021/10/07 08:05:18;;;;;;;62.72;35.40;;;16.90;41.90;;;;;;5068872;28;20395;-75
2021/10/07 08:07:44;;;;;;;69.07;35.08;;;17.00;40.70;;;;;;5068519;28;20431;-77
2021/10/07 08:10:11;;;;;;;64.73;36.43;;;17.00;39.40;;;;;;5068488;28;20392;-77
2021/10/07 08:12:37;;;;;;;73.90;37.88;;;16.80;40.10;;;;;;5056533;28;20393;-75
2021/10/07 08:15:06;;;;;;;66.97;35.50;;;16.70;41.30;;;;;;5063546;28;20405;-73
2021/10/07 08:17:33;;;;;;;77.93;38.72;;;16.50;40.90;;;;;;5060553;28;20403;-74
2021/10/07 08:20:00;;;;;;;79.70;39.63;;;16.50;42.70;;;;;;5056933;28;20395;-76
2021/10/07 08:22:26;;;;;;;75.07;38.33;;;16.50;41.40;;;;;;5069842;28;20394;-75
2021/10/07 08:24:52;;;;;;;74.85;39.22;;;16.60;40.40;;;;;;5065320;28;20457;-75
2021/10/07 08:27:18;;;;;;;83.88;41.33;;;16.60;40.00;;;;;;5053231;28;20464;-75
2021/10/07 08:29:44;;;;;;;81.28;39.90;;;16.80;40.80;;;;;;5068601;28;20391;-75
2021/10/07 08:32:10;;;;;;;74.18;37.38;;;16.90;40.60;;;;;;5067362;28;20391;-75
2021/10/07 08:34:36;;;;;;;71.07;37.08;;;16.80;40.60;;;;;;5066234;28;20964;-80
2021/10/07 08:37:04;;;;;;;70.45;36.45;;;16.80;40.00;;;;;;5069659;28;21321;-76
2021/10/07 08:39:30;;;;;;;78.30;38.70;;;16.70;39.10;;;;;;5069105;28;20403;-76
2021/10/07 08:41:56;;;;;;;74.90;38.15;;;16.60;39.70;;;;;;5059116;28;20408;-77
2021/10/07 08:44:23;;;;;;;77.30;39.25;;;16.50;39.90;;;;;;5065047;28;20394;-77
2021/10/07 08:46:51;;;;;;;73.50;40.25;;;16.30;40.10;;;;;;5069624;28;20392;-77
2021/10/07 08:49:20;;;;;;;74.75;36.97;;;16.20;40.70;;;;;;5078248;28;20764;-79
2021/10/07 08:51:46;;;;;;;68.93;37.13;;;16.10;41.20;;;;;;5058208;28;20387;-78
2021/10/07 08:54:13;;;;;;;65.82;35.63;;;16.20;41.20;;;;;;5079229;28;20410;-78
2021/10/07 08:56:39;;;;;;;67.53;36.43;;;16.10;40.50;;;;;;5059702;28;20388;-78
2021/10/07 08:59:05;;;;;;;71.70;38.25;;;15.80;42.10;;;;;;5069106;28;20803;-75
2021/10/07 09:01:37;;;;;;;69.03;36.55;;;15.70;43.80;;;;;;5066004;28;20405;-78
2021/10/07 09:04:33;;;;;;;64.53;35.37;;;15.60;43.30;;;;;;5053414;28;20867;-77
2021/10/07 09:07:06;;;;;;;72.15;34.40;;;15.50;44.70;;;;;;5058284;28;20444;-77
2021/10/07 09:09:33;;;;;;;67.07;32.30;;;15.60;44.50;;;;;;5069057;28;20403;-77
2021/10/07 09:12:02;;;;;;;70.33;33.80;;;15.60;44.70;;;;;;5068018;28;20894;-75
2021/10/07 09:14:40;;;;;;;65.88;35.33;;;15.60;43.80;;;;;;5067630;28;20888;-75
2021/10/07 09:17:07;;;;;;;70.70;33.70;;;15.70;42.50;;;;;;5066024;28;20396;-75
2021/10/07 09:19:40;;;;;;;63.53;32.97;;;15.60;43.70;;;;;;5068660;28;20894;-74
2021/10/07 09:22:35;;;;;;;62.47;32.90;;;15.40;43.50;;;;;;5059634;28;20424;-75
2021/10/07 09:25:04;;;;;;;59.00;31.13;;;15.40;45.10;;;;;;5070285;28;20415;-74
2021/10/07 09:27:35;;;;;;;54.30;31.00;;;15.50;44.10;;;;;;5069436;28;20753;-74
2021/10/07 09:30:07;;;;;;;60.45;31.08;;;15.70;43.40;;;;;;5070926;28;20745;-76
2021/10/07 09:32:38;;;;;;;55.75;32.20;;;15.90;41.00;;;;;;5070598;28;20378;-77
2021/10/07 09:35:06;;;;;;;55.08;31.13;;;16.00;41.20;;;;;;5069497;28;20403;-77
2021/10/07 09:37:46;;;;;;;55.95;29.67;;;16.20;40.60;;;;;;5069780;28;20449;-76
2021/10/07 09:40:26;;;;;;;52.45;30.02;;;16.10;39.30;;;;;;5073869;28;20394;-77
2021/10/07 09:43:01;;;;;;;52.15;28.98;;;16.00;39.80;;;;;;5082024;28;20735;-77
2021/10/07 09:45:33;;;;;;;54.90;27.90;;;16.20;39.40;;;;;;5094216;28;20790;-78
2021/10/07 09:48:16;;;;;;;49.30;26.25;;;16.40;37.80;;;;;;5094121;28;20386;-76
2021/10/07 09:50:44;;;;;;;51.33;27.93;;;16.30;38.00;;;;;;5094064;28;20382;-78
2021/10/07 09:53:12;;;;;;;48.30;27.70;;;16.10;39.00;;;;;;5083087;28;20399;-78
2021/10/07 09:55:43;;;;;;;47.30;26.52;;;15.80;39.90;;;;;;5076160;28;20414;-78
2021/10/07 09:58:11;;;;;;;48.63;26.60;;;15.60;41.30;;;;;;5080970;28;20387;-79
2021/10/07 10:00:39;;;;;;;46.95;24.38;;;15.60;41.80;;;;;;5080797;28;20399;-78
2021/10/07 10:03:06;;;;;;;42.17;24.10;;;15.90;41.20;;;;;;5078956;28;20743;-78
2021/10/07 10:05:34;;;;;;;42.45;24.73;;;16.20;38.90;;;;;;5073829;28;20411;-77
2021/10/07 10:08:02;;;;;;;42.17;23.23;;;16.40;37.60;;;;;;5073439;28;20396;-77
2021/10/07 10:10:28;;;;;;;40.35;22.30;;;16.50;37.30;;;;;;5052236;28;20385;-78
2021/10/07 10:12:53;;;;;;;38.83;20.38;;;16.60;37.70;;;;;;5054668;28;20415;-78
2021/10/07 10:15:20;;;;;;;39.92;21.15;;;16.60;36.40;;;;;;5058727;28;20458;-76
2021/10/07 10:17:47;;;;;;;37.00;20.23;;;16.70;37.00;;;;;;5073086;28;20381;-75
2021/10/07 10:20:19;;;;;;;38.40;19.80;;;16.90;36.50;;;;;;5070457;28;20385;-78
2021/10/07 10:23:01;;;;;;;35.58;19.88;;;17.00;34.90;;;;;;5073463;28;20416;-78
2021/10/07 10:25:29;;;;;;;32.92;19.50;;;17.10;33.80;;;;;;5075590;28;20404;-79
2021/10/07 10:27:59;;;;;;;31.13;18.42;;;17.30;34.80;;;;;;5075826;28;20474;-78
2021/10/07 10:30:30;;;;;;;30.60;17.40;;;17.40;32.90;;;;;;5063380;28;20762;-78
2021/10/07 10:32:58;;;;;;;34.67;20.35;;;17.60;33.40;;;;;;5053357;28;20382;-78
2021/10/07 10:35:30;;;;;;;38.13;18.85;;;17.60;32.80;;;;;;5055872;28;20451;-78
2021/10/07 10:37:57;;;;;;;33.05;19.90;;;17.60;32.40;;;;;;5065696;28;20398;-78
2021/10/07 10:40:23;;;;;;;35.80;19.33;;;17.70;33.10;;;;;;5053489;28;20484;-77
2021/10/07 10:43:17;;;;;;;34.53;19.97;;;17.50;33.20;;;;;;5064350;28;20464;-77
2021/10/07 10:46:11;;;;;;;31.45;19.45;;;17.50;32.60;;;;;;5072158;28;20399;-76
2021/10/07 10:48:49;;;;;;;33.35;19.17;;;17.60;31.50;;;;;;5072518;28;20410;-78
2021/10/07 10:51:16;;;;;;;33.25;18.65;;;17.60;31.40;;;;;;5066694;28;20425;-76
2021/10/07 10:54:02;;;;;;;32.03;18.63;;;17.60;31.50;;;;;;5058757;28;20388;-75
2021/10/07 10:56:40;;;;;;;36.75;18.45;;;17.50;31.40;;;;;;5072296;28;20470;-77
2021/10/07 10:59:17;;;;;;;31.05;17.77;;;17.90;30.10;;;;;;5063863;28;20392;-75
2021/10/07 11:01:43;;;;;;;33.88;18.85;;;18.00;30.50;;;;;;5069627;28;20399;-76
2021/10/07 11:04:10;;;;;;;31.03;16.33;;;18.00;30.60;;;;;;5068538;28;20413;-76
2021/10/07 11:07:13;;;;;;;31.15;17.63;;;18.00;31.10;;;;;;5065024;28;20412;-76
2021/10/07 11:10:03;;;;;;;33.55;16.25;;;17.80;30.60;;;;;;5065220;28;20391;-76
2021/10/07 11:12:47;;;;;;;25.73;16.25;;;17.70;30.70;;;;;;5063623;28;20392;-73
2021/10/07 11:15:14;;;;;;;26.23;15.77;;;17.70;31.10;;;;;;5073550;28;20406;-74
2021/10/07 11:17:44;;;;;;;26.75;15.85;;;17.50;30.00;;;;;;5058935;28;20957;-73
2021/10/07 11:20:16;;;;;;;25.05;15.73;;;17.40;31.20;;;;;;5055791;28;21128;-73
2021/10/07 11:23:15;;;;;;;25.27;15.05;;;17.20;31.40;;;;;;5059629;28;20389;-75
2021/10/07 11:25:46;;;;;;;22.65;14.05;;;17.20;32.80;;;;;;5067003;28;20444;-75
2021/10/07 11:28:12;;;;;;;26.40;15.85;;;17.50;32.40;;;;;;5060276;28;20413;-76
2021/10/07 11:30:40;;;;;;;28.67;15.35;;;17.40;32.40;;;;;;5058410;28;20483;-75
2021/10/07 11:33:06;;;;;;;25.83;15.00;;;17.50;31.30;;;;;;5072023;28;20420;-73
2021/10/07 11:35:33;;;;;;;31.37;14.30;;;17.50;31.30;;;;;;5072018;28;20927;-74
2021/10/07 11:38:05;;;;;;;23.52;15.10;;;17.60;32.10;;;;;;5069022;28;20396;-74
2021/10/07 11:40:49;;;;;;;26.77;15.98;;;17.90;30.70;;;;;;5071471;28;20380;-74
2021/10/07 11:43:20;;;;;;;26.40;15.13;;;18.20;28.50;;;;;;5071641;28;20395;-75
2021/10/07 11:45:51;;;;;;;22.38;14.70;;;18.20;28.40;;;;;;5060990;28;20440;-75
2021/10/07 11:48:20;;;;;;;23.95;14.43;;;18.20;28.80;;;;;;5065412;28;20505;-75
2021/10/07 11:50:52;;;;;;;27.57;16.20;;;18.20;28.00;;;;;;5063432;28;20407;-75
2021/10/07 11:53:27;;;;;;;24.83;15.32;;;18.10;27.90;;;;;;5058455;28;20883;-75
2021/10/07 11:55:53;;;;;;;29.55;15.82;;;17.90;29.20;;;;;;5055424;28;20468;-75
2021/10/07 11:58:19;;;;;;;23.58;15.20;;;17.80;29.00;;;;;;5063559;28;20401;-74
2021/10/07 12:00:48;;;;;;;27.80;15.77;;;17.60;28.90;;;;;;5069064;28;20908;-74
2021/10/07 12:03:20;;;;;;;26.00;15.15;;;17.40;30.00;;;;;;5058340;28;20397;-78
2021/10/07 12:05:53;;;;;;;28.48;16.00;;;17.30;29.40;;;;;;5066890;28;20488;-74
2021/10/07 12:08:20;;;;;;;25.42;16.17;;;17.10;29.90;;;;;;5068557;28;21497;-74
2021/10/07 12:10:49;;;;;;;24.90;15.68;;;17.00;30.70;;;;;;5064447;28;20423;-75
2021/10/07 12:13:20;;;;;;;23.52;14.80;;;17.30;31.00;;;;;;5071039;28;20428;-74
2021/10/07 12:15:54;;;;;;;27.48;16.45;;;17.50;30.20;;;;;;5068937;28;20892;-75
2021/10/07 12:18:23;;;;;;;21.73;15.00;;;17.30;30.50;;;;;;5071575;28;20730;-75
2021/10/07 12:21:05;;;;;;;26.38;16.60;;;17.30;30.20;;;;;;5072061;28;20470;-75
2021/10/07 12:23:44;;;;;;;29.17;16.63;;;17.30;30.50;;;;;;5093086;28;20775;-75
2021/10/07 12:26:10;;;;;;;24.35;14.55;;;17.70;29.30;;;;;;5090047;28;20443;-75
2021/10/07 12:28:41;;;;;;;22.77;14.13;;;17.90;28.20;;;;;;5083587;28;21092;-75
2021/10/07 12:31:07;;;;;;;26.60;15.43;;;18.00;28.50;;;;;;5053617;28;20389;-75